Latest Weather Observations for Middle Point

IDD60801

Issued at 3:31 pm CST Friday 29 April 2016 (issued every 30 minutes, with the page automatically refreshed every 10 minutes)

About weather observations | Map of weather stations | Latest weather observations for NT | Other Formats
Station Details ID: 014041 Name: MIDDLE POINT Lat: -12.61 Lon: 131.30 Height: 14.1 m
Data from the previous 72 hours. | See also: Recent months at Middle Point
Date/Time
CST
Temp
°C
App
Temp
°C
Dew
Point
Rel
Hum
%
Delta-T
°C
Wind Press
QNH
hPa
Press
MSL
hPa
Rain
since 9 am
mm
Dir
 
Spd
km/h
Gust
km/h
Spd
kts
Gust
kts
29/03:30pm 33.8 36.7 19.8 43 9.3 E 4 9 2 5 1008.8 1008.7 0.0
29/03:00pm 33.5 35.7 19.6 44 9.2 ESE 7 11 4 6 1009.0 1008.9 0.0
29/02:30pm 33.8 36.5 20.6 46 8.9 ENE 7 13 4 7 1009.3 1009.2 0.0
29/02:00pm 33.5 35.8 21.3 48 8.2 NE 11 17 6 9 1009.6 1009.5 0.0
29/01:30pm 33.8 36.8 20.9 46 8.7 ENE 6 13 3 7 1009.9 1009.8 0.0
29/01:00pm 33.2 36.0 19.7 45 8.9 SE 4 9 2 5 1010.4 1010.3 0.0
29/12:30pm 33.2 36.5 21.4 50 8.0 SE 6 9 3 5 1011.2 1011.0 0.0
29/12:00pm 32.6 36.3 21.5 52 7.5 ESE 4 9 2 5 1011.8 1011.6 0.0
29/11:30am 32.2 35.0 20.8 51 7.6 ESE 7 13 4 7 1012.4 1012.2 0.0
29/11:00am 33.1 36.4 21.9 51 7.6 ESE 7 13 4 7 1012.9 1012.7 0.0
29/10:30am 32.4 36.4 22.8 57 6.6 SSE 6 11 3 6 1013.0 1012.8 0.0
29/10:00am 31.1 35.6 23.7 64 5.1 SE 6 9 3 5 1013.0 1012.8 0.0
29/09:30am 30.1 34.5 23.5 67 4.6 SSE 6 9 3 5 1012.9 1012.7 0.0
29/09:00am 28.4 32.4 23.1 73 3.6 SE 7 11 4 6 1012.9 1012.7 0.0
29/08:30am 27.0 31.1 23.0 79 2.7 SE 6 7 3 4 1012.7 1012.5 0.0
29/08:00am 25.1 30.3 23.5 91 1.1 SSW 2 6 1 3 1012.2 1012.0 0.0
29/07:30am 24.2 28.5 22.6 91 1.1 SSE 4 6 2 3 1012.0 1011.8 0.0
29/07:00am 23.3 27.7 21.4 89 1.3 CALM 0 0 0 0 1011.7 1011.5 0.0
29/06:30am 23.8 28.3 21.5 87 1.5 CALM 0 0 0 0 1011.3 1011.1 0.0
29/06:00am 24.2 29.0 22.1 88 1.4 CALM 0 0 0 0 1011.1 1010.9 0.0
29/05:30am 24.4 29.2 22.1 87 1.5 CALM 0 0 0 0 1010.9 1010.7 0.0
29/05:00am 24.7 29.8 22.6 88 1.4 CALM 0 0 0 0 1010.5 1010.4 0.0
29/04:30am 24.7 29.9 22.8 89 1.3 CALM 0 0 0 0 1010.6 1010.5 0.0
29/04:00am 24.5 29.4 22.4 88 1.4 CALM 0 0 0 0 1010.5 1010.4 0.0
29/03:30am 24.2 28.6 22.1 88 1.4 SSW 2 6 1 3 1010.7 1010.6 0.0
29/03:00am 24.1 28.8 22.0 88 1.4 CALM 0 0 0 0 1010.9 1010.7 0.0
29/02:30am 23.8 28.4 21.7 88 1.4 CALM 0 0 0 0 1011.1 1010.9 0.0
29/02:00am 23.8 28.4 21.7 88 1.4 CALM 0 0 0 0 1011.3 1011.1 0.0
29/01:30am 23.8 28.3 21.5 87 1.5 CALM 0 0 0 0 1011.5 1011.3 0.0
29/01:00am 24.1 28.6 21.6 86 1.7 CALM 0 0 0 0 1011.7 1011.5 0.0
29/12:30am 24.4 29.0 21.7 85 1.8 CALM 0 0 0 0 1011.6 1011.4 0.0
29/12:00am 24.7 29.3 21.8 84 1.9 CALM 0 0 0 0 1011.7 1011.5 0.0
 
Date/Time
CST
Temp
°C
App
Temp
°C
Dew
Point
Rel
Hum
%
Delta-T
°C
Wind Press
QNH
hPa
Press
MSL
hPa
Rain
since 9 am
mm
Dir
 
Spd
km/h
Gust
km/h
Spd
kts
Gust
kts
28/11:30pm 24.9 28.8 21.8 83 2.1 WSW 4 6 2 3 1011.9 1011.7 0.0
28/11:00pm 25.2 29.4 21.7 81 2.3 WSW 2 4 1 2 1011.9 1011.7 0.0
28/10:30pm 26.1 29.9 22.4 80 2.5 NNW 6 6 3 3 1011.7 1011.5 0.0
28/10:00pm 26.6 30.6 22.7 79 2.6 NNW 6 6 3 3 1011.6 1011.4 0.0
28/09:30pm 26.5 30.4 22.6 79 2.6 NNW 6 7 3 4 1011.6 1011.4 0.0
28/09:00pm 26.5 30.5 22.1 77 3.0 NNW 4 6 2 3 1011.1 1010.9 0.0
28/08:30pm 26.6 30.2 22.0 76 3.1 N 6 6 3 3 1010.5 1010.4 0.0
28/08:00pm 27.0 30.6 22.0 74 3.4 N 6 6 3 3 1010.3 1010.2 0.0
28/07:30pm 27.4 30.8 21.7 71 3.8 NNW 6 7 3 4 1010.0 1009.9 0.0
28/07:00pm 28.1 30.9 20.9 65 4.8 NNW 7 9 4 5 1009.8 1009.7 0.0
28/06:30pm 29.6 31.5 20.5 58 6.0 N 11 13 6 7 1009.6 1009.5 0.0
28/06:00pm 31.1 32.8 20.1 52 7.3 N 11 17 6 9 1009.2 1009.1 0.0
28/05:30pm 32.8 34.1 19.3 45 8.9 N 11 15 6 8 1008.8 1008.7 0.0
28/05:00pm 33.5 34.2 18.8 41 9.6 N 13 17 7 9 1008.3 1008.2 0.0
28/04:30pm 34.5 35.4 18.5 38 10.5 N 11 17 6 9 1008.0 1007.9 0.0
28/04:00pm 34.8 34.7 16.1 32 11.8 NE 11 15 6 8 1008.1 1008.0 0.0
28/03:30pm 35.4 36.0 16.7 33 12.0 NNE 9 19 5 10 1008.1 1008.0 0.0
28/03:00pm 34.1 34.6 15.5 32 11.6 NE 7 13 4 7 1008.4 1008.3 0.0
28/02:30pm 34.9 35.3 17.2 35 11.4 NNE 11 19 6 10 1008.8 1008.7 0.0
28/02:00pm 34.6 34.7 15.5 32 12.0 ENE 9 17 5 9 1009.1 1009.0 0.0
28/01:30pm 35.3 34.9 16.1 32 12.2 NE 13 30 7 16 1009.5 1009.4 0.0
28/01:00pm 34.0 34.0 17.2 36 10.8 E 13 24 7 13 1010.0 1009.9 0.0
28/12:30pm 34.0 34.4 18.1 39 10.3 NE 13 20 7 11 1010.5 1010.4 0.0
28/12:00pm 33.4 35.6 21.2 48 8.2 NE 11 22 6 12 1011.0 1010.8 0.0
28/11:30am 32.7 34.8 20.2 47 8.3 NE 9 19 5 10 1011.6 1011.4 0.0
28/11:00am 32.5 35.7 22.3 55 7.0 NNE 9 15 5 8 1011.9 1011.7 0.0
28/10:30am 31.7 35.1 22.7 59 6.2 NE 9 17 5 9 1012.1 1011.9 0.0
28/10:00am 31.7 34.7 22.7 59 6.2 NNE 11 19 6 10 1012.1 1011.9 0.0
28/09:30am 30.9 34.9 23.8 66 4.9 NNE 9 15 5 8 1011.8 1011.6 0.0
28/09:00am 29.5 32.7 23.0 68 4.4 NNE 11 15 6 8 1011.6 1011.4 0.0
28/08:30am 27.9 31.5 23.1 75 3.3 NNE 9 15 5 8 1011.5 1011.3 0.0
28/08:00am 25.7 31.0 23.0 85 1.8 CALM 0 0 0 0 1011.0 1010.8 0.0
28/07:30am 23.4 27.4 22.0 92 0.9 NNE 4 6 2 3 1010.5 1010.4 0.0
28/07:00am 22.4 25.2 20.9 91 1.0 NNE 7 9 4 5 1010.1 1010.0 0.0
28/06:30am 22.6 26.8 20.9 90 1.1 CALM 0 2 0 1 1009.6 1009.5 0.0
28/06:00am 22.7 26.3 21.2 91 1.0 NE 4 6 2 3 1009.4 1009.3 0.0
28/05:30am 22.4 26.4 20.5 89 1.2 CALM 0 0 0 0 1009.1 1009.0 0.0
28/05:00am 22.6 26.8 20.9 90 1.1 CALM 0 0 0 0 1008.9 1008.8 0.0
28/04:30am 22.9 27.0 20.8 88 1.4 CALM 0 0 0 0 1008.7 1008.6 0.0
28/04:00am 23.2 27.5 21.1 88 1.4 CALM 0 0 0 0 1008.8 1008.7 0.0
28/03:30am 23.6 27.6 21.3 87 1.5 W 2 4 1 2 1008.8 1008.7 0.0
28/03:00am 23.6 27.3 21.5 88 1.4 N 4 6 2 3 1009.0 1008.9 0.0
28/02:30am 24.4 28.5 21.5 84 1.9 N 2 2 1 1 1009.3 1009.2 0.0
28/02:00am 24.9 28.9 22.0 84 1.9 N 4 4 2 2 1009.5 1009.4 0.0
28/01:30am 25.4 29.4 22.1 82 2.2 N 4 7 2 4 1009.7 1009.6 0.0
28/01:00am 25.7 29.6 22.6 83 2.1 N 6 7 3 4 1009.8 1009.7 0.0
28/12:30am 26.1 30.6 23.0 83 2.1 NW 4 6 2 3 1009.9 1009.8 0.0
28/12:00am 25.9 30.4 23.0 84 2.0 W 4 6 2 3 1009.9 1009.8 0.0
 
Date/Time
CST
Temp
°C
App
Temp
°C
Dew
Point
Rel
Hum
%
Delta-T
°C
Wind Press
QNH
hPa
Press
MSL
hPa
Rain
since 9 am
mm
Dir
 
Spd
km/h
Gust
km/h
Spd
kts
Gust
kts
27/11:30pm 26.0 30.2 23.1 84 2.0 WSW 6 6 3 3 1010.1 1010.0 0.0
27/11:00pm 26.1 30.1 22.8 82 2.2 WSW 6 7 3 4 1010.2 1010.1 0.0
27/10:30pm 26.2 30.1 22.9 82 2.2 SW 7 9 4 5 1010.2 1010.1 0.0
27/10:00pm 26.1 30.0 23.0 83 2.1 SW 7 11 4 6 1010.1 1010.0 0.0
27/09:30pm 26.4 29.8 22.7 80 2.5 WSW 9 9 5 5 1009.8 1009.7 0.0
27/09:00pm 27.3 32.5 23.5 80 2.6 WNW 2 2 1 1 1009.7 1009.6 0.0
27/08:30pm 27.4 31.6 23.2 78 2.9 NW 6 6 3 3 1009.5 1009.4 0.0
27/08:00pm 27.5 31.4 22.9 76 3.1 NW 7 9 4 5 1009.2 1009.1 0.0
27/07:30pm 28.1 31.9 22.8 73 3.6 N 7 9 4 5 1009.0 1008.9 0.0
27/07:00pm 28.6 31.8 22.3 68 4.3 N 9 15 5 8 1008.6 1008.5 0.0
27/06:30pm 29.7 32.4 22.2 64 5.1 N 11 15 6 8 1008.2 1008.1 0.0
27/06:00pm 31.4 33.6 21.8 56 6.5 N 13 17 7 9 1007.8 1007.7 0.0
27/05:30pm 32.9 34.8 21.4 50 7.8 N 13 19 7 10 1007.7 1007.6 0.0
27/05:00pm 33.9 35.8 20.6 45 8.9 N 11 17 6 9 1007.6 1007.5 0.0
27/04:30pm 35.1 36.1 16.9 34 11.7 NE 7 13 4 7 1007.4 1007.3 0.0
27/04:00pm 35.4 37.8 19.7 39 10.4 NE 6 11 3 6 1007.4 1007.3 0.0
27/03:30pm 34.0 34.6 18.5 40 10.1 E 13 19 7 10 1007.5 1007.4 0.0
27/03:00pm 34.8 36.6 18.8 39 10.5 E 7 13 4 7 1007.7 1007.6 0.0
27/02:30pm 34.7 36.5 19.5 40 10.1 E 9 19 5 10 1008.1 1008.0 0.0
27/02:00pm 33.6 36.3 20.7 46 8.7 NE 7 13 4 7 1008.6 1008.5 0.0
27/01:30pm 32.6 35.2 20.5 49 8.1 NE 7 11 4 6 1009.2 1009.1 0.0
27/01:00pm 33.2 34.9 19.3 44 9.1 SE 9 17 5 9 1009.4 1009.3 0.0
27/12:30pm 34.1 35.6 20.5 45 9.1 ESE 13 20 7 11 1009.9 1009.8 0.0
27/12:00pm 33.6 35.0 20.4 46 8.8 ESE 13 19 7 10 1010.4 1010.3 0.0
27/11:30am 32.4 34.3 20.6 49 7.9 ESE 11 17 6 9 1011.2 1011.0 0.0
27/11:00am 33.1 34.5 20.3 47 8.5 NE 13 22 7 12 1011.7 1011.5 0.0
27/10:30am 32.1 33.5 21.0 52 7.4 E 15 22 8 12 1012.0 1011.8 0.0
27/10:00am 31.5 34.5 21.9 56 6.5 ESE 9 13 5 7 1012.1 1011.9 0.0
27/09:30am 30.4 33.7 21.8 60 5.8 ENE 7 11 4 6 1012.0 1011.8 0.0
27/09:00am 29.2 33.2 22.7 68 4.4 E 6 11 3 6 1012.0 1011.8 0.0
27/08:30am 27.6 31.5 23.0 76 3.1 ENE 7 13 4 7 1011.9 1011.7 0.0
27/08:00am 26.9 31.9 23.8 83 2.1 ENE 4 13 2 7 1011.6 1011.4 0.0
27/07:30am 26.1 31.7 24.3 90 1.2 ENE 2 6 1 3 1011.3 1011.1 0.0
27/07:00am 24.5 29.0 22.9 91 1.1 E 4 6 2 3 1011.2 1011.0 0.0
27/06:30am 24.0 27.6 22.4 91 1.1 ENE 7 9 4 5 1011.0 1010.8 0.0
27/06:00am 23.3 27.3 21.4 89 1.3 E 2 4 1 2 1010.5 1010.4 0.0
27/05:30am 23.6 28.2 21.7 89 1.3 CALM 0 0 0 0 1010.2 1010.1 0.0
27/05:00am 23.6 27.9 21.9 90 1.1 E 2 2 1 1 1009.9 1009.8 0.0
27/04:30am 23.8 28.5 21.9 89 1.3 CALM 0 0 0 0 1010.0 1009.9 0.0
27/04:00am 23.7 28.2 21.6 88 1.4 CALM 0 0 0 0 1010.1 1010.0 0.0
27/03:30am 23.9 28.6 22.0 89 1.3 CALM 0 0 0 0 1010.2 1010.1 0.0
27/03:00am 24.0 28.7 21.9 88 1.4 CALM 0 0 0 0 1010.4 1010.3 0.0
27/02:30am 24.3 28.8 22.2 88 1.4 E 2 2 1 1 1010.7 1010.6 0.0
27/02:00am 24.3 29.1 22.2 88 1.4 CALM 0 6 0 3 1010.9 1010.7 0.0
27/01:30am 24.6 29.6 22.5 88 1.4 CALM 0 0 0 0 1011.0 1010.8 0.0
27/01:00am 24.4 29.2 22.1 87 1.5 CALM 0 0 0 0 1011.0 1010.8 0.0
27/12:30am 24.4 28.8 22.1 87 1.5 WSW 2 4 1 2 1011.4 1011.2 0.0
27/12:00am 24.5 28.5 22.0 86 1.7 SW 4 6 2 3 1011.3 1011.1 0.0
 
Date/Time
CST
Temp
°C
App
Temp
°C
Dew
Point
Rel
Hum
%
Delta-T
°C
Wind Press
QNH
hPa
Press
MSL
hPa
Rain
since 9 am
mm
Dir
 
Spd
km/h
Gust
km/h
Spd
kts
Gust
kts
26/11:30pm 24.6 28.3 22.3 87 1.5 SW 6 7 3 4 1011.2 1011.0 0.0
26/11:00pm 24.8 28.7 22.5 87 1.5 SW 6 7 3 4 1011.3 1011.1 0.0
26/10:30pm 25.0 29.6 22.5 86 1.7 NNW 2 4 1 2 1011.1 1010.9 0.0
26/10:00pm 25.3 29.5 22.4 84 1.9 NNW 4 4 2 2 1011.0 1010.8 0.0
26/09:30pm 25.5 29.9 22.8 85 1.8 N 4 6 2 3 1010.7 1010.6 0.0
26/09:00pm 25.7 29.7 22.8 84 2.0 N 6 6 3 3 1010.5 1010.4 0.0
26/08:30pm 26.1 30.1 22.8 82 2.2 N 6 7 3 4 1010.2 1010.1 0.0
26/08:00pm 26.6 30.5 22.9 80 2.5 N 7 7 4 4 1009.8 1009.7 0.0
26/07:30pm 27.2 30.9 22.6 76 3.1 N 7 9 4 5 1009.5 1009.4 0.0
26/07:00pm 27.8 31.5 22.5 73 3.6 N 7 9 4 5 1009.3 1009.2 0.0
26/06:30pm 29.3 33.2 22.5 67 4.6 N 6 7 3 4 1009.0 1008.9 0.0
26/06:00pm 31.3 33.7 21.5 56 6.6 N 11 15 6 8 1008.8 1008.7 0.0
26/05:30pm 32.8 34.5 21.0 50 7.9 N 13 20 7 11 1008.6 1008.5 0.0
26/05:00pm 33.8 35.1 20.9 46 8.7 N 15 20 8 11 1008.2 1008.1 0.0
26/04:30pm 34.9 36.0 19.7 41 10.1 N 13 17 7 9 1008.0 1007.9 0.0
26/04:00pm 35.7 36.8 17.9 35 11.6 NNE 9 17 5 9 1008.0 1007.9 0.0

Other Formats:

Comma delimited format used in spreadsheet applications
http://www.bom.gov.au/fwo/IDD60801/IDD60801.95121.axf

JavaScript Object Notation format (JSON) in row-major order
http://www.bom.gov.au/fwo/IDD60801/IDD60801.95121.json